Terminal Aerodrome Forecast
Issued by NWS Northern Indiana

Home | Current Version | Previous Version | Graphics & Text | Print | Product List | Glossary On
Versions: 1 2 3 4 5 6 7 8 9 10 11 12 13 14 15
645
FTUS43 KIWX 100537
TAFFWA
TAF
KFWA 100537Z 1006/1106 26016KT 5SM -SN BR SCT015 OVC025
      TEMPO 1008/1012 2SM -SHSN BR OVC015
     FM101400 30014G22KT 4SM -SHSN BR OVC020
     FM110000 30010KT P6SM -SHSN BKN025=

USA.gov is the U.S. government's official web portal to all federal, state and local government web resources and services.